Beighton, United Kingdom
Current Conditions -  °F | °C
As of 12:50 PM on Thursday 30 Oct 2014 (Local Time) from EGCN Reporting Station
Broken Clouds Broken Clouds  
Wind Chill: 63°   Ceiling: 3500
Heat Index: 63°   Visibility: 6mi
Dew Point: 59°   Wind: 9mph
Humidity: 88%   Direction: 190°S
Pressure: 30.03"   Gusts: NA
Location:  53.33°N, 1.33°W
Report Text: EGCN 301250Z 19008KT 9999 BKN035 17/15 Q1017
Loading
Personal Weather Stations






























Interactive Weather Map New forecast layout! Learn more

10-Day Weather Forecast

Advertisements
Track Severe Weather on mobile